sensor_id;sensor_type;location;lat;lon;timestamp;P1;durP1;ratioP1;P2;durP2;ratioP2
2610;SDS011;5612;51.134;17.058;2022-08-01T00:00:10;4.97;;;4.57;;
2610;SDS011;5612;51.134;17.058;2022-08-01T00:02:39;4.40;;;4.10;;
2610;SDS011;5612;51.134;17.058;2022-08-01T00:05:08;5.03;;;4.53;;
2610;SDS011;5612;51.134;17.058;2022-08-01T00:07:38;6.70;;;5.30;;
2610;SDS011;5612;51.134;17.058;2022-08-01T00:10:08;4.90;;;4.50;;
2610;SDS011;5612;51.134;17.058;2022-08-01T00:12:38;4.23;;;4.03;;
2610;SDS011;5612;51.134;17.058;2022-08-01T00:15:10;4.53;;;4.33;;
2610;SDS011;5612;51.134;17.058;2022-08-01T00:17:40;5.13;;;4.63;;
2610;SDS011;5612;51.134;17.058;2022-08-01T00:20:09;4.73;;;4.43;;
2610;SDS011;5612;51.134;17.058;2022-08-01T00:22:39;5.70;;;5.30;;
2610;SDS011;5612;51.134;17.058;2022-08-01T00:25:08;5.03;;;4.73;;
2610;SDS011;5612;51.134;17.058;2022-08-01T00:27:37;5.30;;;4.80;;
2610;SDS011;5612;51.134;17.058;2022-08-01T00:30:08;5.50;;;5.00;;
2610;SDS011;5612;51.134;17.058;2022-08-01T00:32:41;5.43;;;5.03;;
2610;SDS011;5612;51.134;17.058;2022-08-01T00:35:10;4.90;;;4.60;;
2610;SDS011;5612;51.134;17.058;2022-08-01T00:37:40;8.33;;;6.80;;
2610;SDS011;5612;51.134;17.058;2022-08-01T00:40:08;4.67;;;4.37;;
2610;SDS011;5612;51.134;17.058;2022-08-01T00:42:37;4.97;;;4.10;;
2610;SDS011;5612;51.134;17.058;2022-08-01T00:45:11;5.13;;;4.77;;
2610;SDS011;5612;51.134;17.058;2022-08-01T00:47:39;5.10;;;4.80;;
2610;SDS011;5612;51.134;17.058;2022-08-01T00:50:09;5.17;;;4.87;;
2610;SDS011;5612;51.134;17.058;2022-08-01T00:52:39;4.83;;;4.53;;
2610;SDS011;5612;51.134;17.058;2022-08-01T00:55:17;5.30;;;4.90;;
2610;SDS011;5612;51.134;17.058;2022-08-01T00:57:47;6.10;;;5.70;;
2610;SDS011;5612;51.134;17.058;2022-08-01T01:00:33;5.87;;;5.37;;
2610;SDS011;5612;51.134;17.058;2022-08-01T01:03:20;5.43;;;4.93;;
2610;SDS011;5612;51.134;17.058;2022-08-01T01:06:13;6.00;;;5.10;;
2610;SDS011;5612;51.134;17.058;2022-08-01T01:08:55;5.23;;;4.73;;
2610;SDS011;5612;51.134;17.058;2022-08-01T01:11:35;5.10;;;4.70;;
2610;SDS011;5612;51.134;17.058;2022-08-01T01:14:15;6.10;;;5.50;;
2610;SDS011;5612;51.134;17.058;2022-08-01T01:16:52;5.83;;;5.43;;
2610;SDS011;5612;51.134;17.058;2022-08-01T01:19:23;5.53;;;5.23;;
2610;SDS011;5612;51.134;17.058;2022-08-01T01:22:05;5.23;;;4.93;;
2610;SDS011;5612;51.134;17.058;2022-08-01T01:24:48;5.70;;;5.30;;
2610;SDS011;5612;51.134;17.058;2022-08-01T01:27:42;5.63;;;5.23;;
2610;SDS011;5612;51.134;17.058;2022-08-01T01:30:19;5.43;;;5.03;;
2610;SDS011;5612;51.134;17.058;2022-08-01T01:32:49;6.20;;;5.70;;
2610;SDS011;5612;51.134;17.058;2022-08-01T01:35:21;5.83;;;5.33;;
2610;SDS011;5612;51.134;17.058;2022-08-01T01:37:56;5.70;;;5.20;;
2610;SDS011;5612;51.134;17.058;2022-08-01T01:40:27;6.47;;;5.77;;
2610;SDS011;5612;51.134;17.058;2022-08-01T01:42:57;7.23;;;4.80;;
2610;SDS011;5612;51.134;17.058;2022-08-01T01:45:28;5.80;;;5.40;;
2610;SDS011;5612;51.134;17.058;2022-08-01T01:47:58;5.77;;;5.23;;
2610;SDS011;5612;51.134;17.058;2022-08-01T01:50:29;5.33;;;4.90;;
2610;SDS011;5612;51.134;17.058;2022-08-01T01:52:59;5.87;;;5.30;;
2610;SDS011;5612;51.134;17.058;2022-08-01T01:55:30;5.27;;;4.80;;
2610;SDS011;5612;51.134;17.058;2022-08-01T01:58:16;5.80;;;5.40;;
2610;SDS011;5612;51.134;17.058;2022-08-01T02:00:48;5.77;;;5.33;;
2610;SDS011;5612;51.134;17.058;2022-08-01T02:03:19;6.90;;;5.87;;
2610;SDS011;5612;51.134;17.058;2022-08-01T02:05:50;5.97;;;5.57;;
2610;SDS011;5612;51.134;17.058;2022-08-01T02:08:21;6.13;;;5.63;;
2610;SDS011;5612;51.134;17.058;2022-08-01T02:10:51;7.77;;;5.47;;
2610;SDS011;5612;51.134;17.058;2022-08-01T02:13:42;5.20;;;4.90;;
2610;SDS011;5612;51.134;17.058;2022-08-01T02:16:14;5.73;;;5.30;;
2610;SDS011;5612;51.134;17.058;2022-08-01T02:18:45;5.17;;;4.87;;
2610;SDS011;5612;51.134;17.058;2022-08-01T02:21:16;5.50;;;5.00;;
2610;SDS011;5612;51.134;17.058;2022-08-01T02:23:51;5.57;;;5.23;;
2610;SDS011;5612;51.134;17.058;2022-08-01T02:26:21;6.30;;;5.70;;
2610;SDS011;5612;51.134;17.058;2022-08-01T02:28:53;6.00;;;5.50;;
2610;SDS011;5612;51.134;17.058;2022-08-01T02:31:28;6.10;;;5.70;;
2610;SDS011;5612;51.134;17.058;2022-08-01T02:34:04;5.77;;;5.37;;
2610;SDS011;5612;51.134;17.058;2022-08-01T02:36:37;5.73;;;5.23;;
2610;SDS011;5612;51.134;17.058;2022-08-01T02:39:08;6.47;;;5.87;;
2610;SDS011;5612;51.134;17.058;2022-08-01T02:41:40;5.20;;;4.90;;
2610;SDS011;5612;51.134;17.058;2022-08-01T02:44:10;6.50;;;6.00;;
2610;SDS011;5612;51.134;17.058;2022-08-01T02:46:47;6.60;;;6.00;;
2610;SDS011;5612;51.134;17.058;2022-08-01T02:49:19;5.50;;;5.20;;
2610;SDS011;5612;51.134;17.058;2022-08-01T02:51:49;6.70;;;5.53;;
2610;SDS011;5612;51.134;17.058;2022-08-01T02:54:21;5.77;;;5.37;;
2610;SDS011;5612;51.134;17.058;2022-08-01T02:56:51;5.90;;;5.60;;
2610;SDS011;5612;51.134;17.058;2022-08-01T02:59:24;7.67;;;6.87;;
2610;SDS011;5612;51.134;17.058;2022-08-01T03:01:57;6.10;;;5.80;;
2610;SDS011;5612;51.134;17.058;2022-08-01T03:04:28;6.33;;;5.83;;
2610;SDS011;5612;51.134;17.058;2022-08-01T03:07:00;6.13;;;5.73;;
2610;SDS011;5612;51.134;17.058;2022-08-01T03:09:32;6.60;;;6.10;;
2610;SDS011;5612;51.134;17.058;2022-08-01T03:12:05;6.10;;;5.60;;
2610;SDS011;5612;51.134;17.058;2022-08-01T03:14:38;5.93;;;5.43;;
2610;SDS011;5612;51.134;17.058;2022-08-01T03:17:09;5.60;;;5.20;;
2610;SDS011;5612;51.134;17.058;2022-08-01T03:19:39;6.07;;;5.67;;
2610;SDS011;5612;51.134;17.058;2022-08-01T03:22:10;6.27;;;5.67;;
2610;SDS011;5612;51.134;17.058;2022-08-01T03:24:41;6.43;;;5.93;;
2610;SDS011;5612;51.134;17.058;2022-08-01T03:27:16;5.97;;;5.57;;
2610;SDS011;5612;51.134;17.058;2022-08-01T03:29:48;5.63;;;5.23;;
2610;SDS011;5612;51.134;17.058;2022-08-01T03:32:19;5.30;;;4.90;;
2610;SDS011;5612;51.134;17.058;2022-08-01T03:34:48;6.73;;;6.07;;
2610;SDS011;5612;51.134;17.058;2022-08-01T03:37:19;6.07;;;5.43;;
2610;SDS011;5612;51.134;17.058;2022-08-01T03:39:54;6.50;;;5.70;;
2610;SDS011;5612;51.134;17.058;2022-08-01T03:42:28;5.80;;;5.40;;
2610;SDS011;5612;51.134;17.058;2022-08-01T03:45:02;5.47;;;5.07;;
2610;SDS011;5612;51.134;17.058;2022-08-01T03:47:41;6.70;;;6.20;;
2610;SDS011;5612;51.134;17.058;2022-08-01T03:50:13;5.77;;;5.27;;
2610;SDS011;5612;51.134;17.058;2022-08-01T03:52:43;8.37;;;5.77;;
2610;SDS011;5612;51.134;17.058;2022-08-01T03:55:14;7.07;;;5.17;;
2610;SDS011;5612;51.134;17.058;2022-08-01T03:57:45;6.00;;;5.60;;
2610;SDS011;5612;51.134;17.058;2022-08-01T04:00:15;5.23;;;4.93;;
2610;SDS011;5612;51.134;17.058;2022-08-01T04:02:47;6.50;;;6.07;;
2610;SDS011;5612;51.134;17.058;2022-08-01T04:05:17;6.03;;;5.43;;
2610;SDS011;5612;51.134;17.058;2022-08-01T04:07:46;5.27;;;4.97;;
2610;SDS011;5612;51.134;17.058;2022-08-01T04:10:21;5.40;;;5.10;;
2610;SDS011;5612;51.134;17.058;2022-08-01T04:12:50;6.50;;;5.80;;
2610;SDS011;5612;51.134;17.058;2022-08-01T04:15:19;6.20;;;5.67;;
2610;SDS011;5612;51.134;17.058;2022-08-01T04:17:50;5.33;;;5.03;;
2610;SDS011;5612;51.134;17.058;2022-08-01T04:20:20;5.50;;;5.10;;
2610;SDS011;5612;51.134;17.058;2022-08-01T04:22:50;5.90;;;5.50;;
2610;SDS011;5612;51.134;17.058;2022-08-01T04:25:19;6.17;;;5.63;;
2610;SDS011;5612;51.134;17.058;2022-08-01T04:27:52;6.20;;;5.60;;
2610;SDS011;5612;51.134;17.058;2022-08-01T04:30:25;6.57;;;6.17;;
2610;SDS011;5612;51.134;17.058;2022-08-01T04:32:59;6.07;;;5.57;;
2610;SDS011;5612;51.134;17.058;2022-08-01T04:35:31;6.60;;;6.00;;
2610;SDS011;5612;51.134;17.058;2022-08-01T04:38:22;5.70;;;5.30;;
2610;SDS011;5612;51.134;17.058;2022-08-01T04:40:54;6.07;;;5.20;;
2610;SDS011;5612;51.134;17.058;2022-08-01T04:43:34;6.10;;;5.70;;
2610;SDS011;5612;51.134;17.058;2022-08-01T04:46:03;6.17;;;5.57;;
2610;SDS011;5612;51.134;17.058;2022-08-01T04:48:36;6.23;;;5.70;;
2610;SDS011;5612;51.134;17.058;2022-08-01T04:51:10;5.67;;;5.30;;
2610;SDS011;5612;51.134;17.058;2022-08-01T04:53:41;8.40;;;5.27;;
2610;SDS011;5612;51.134;17.058;2022-08-01T04:56:12;7.67;;;5.53;;
2610;SDS011;5612;51.134;17.058;2022-08-01T04:58:41;5.73;;;5.20;;
2610;SDS011;5612;51.134;17.058;2022-08-01T05:01:11;6.47;;;6.07;;
2610;SDS011;5612;51.134;17.058;2022-08-01T05:03:41;5.90;;;5.40;;
2610;SDS011;5612;51.134;17.058;2022-08-01T05:06:10;6.13;;;5.73;;
2610;SDS011;5612;51.134;17.058;2022-08-01T05:08:39;6.50;;;5.90;;
2610;SDS011;5612;51.134;17.058;2022-08-01T05:11:08;6.57;;;6.07;;
2610;SDS011;5612;51.134;17.058;2022-08-01T05:13:38;10.10;;;6.40;;
2610;SDS011;5612;51.134;17.058;2022-08-01T05:16:07;6.30;;;5.80;;
2610;SDS011;5612;51.134;17.058;2022-08-01T05:18:36;6.37;;;5.87;;
2610;SDS011;5612;51.134;17.058;2022-08-01T05:21:07;6.67;;;6.17;;
2610;SDS011;5612;51.134;17.058;2022-08-01T05:23:36;6.60;;;6.10;;
2610;SDS011;5612;51.134;17.058;2022-08-01T05:26:08;6.50;;;5.70;;
2610;SDS011;5612;51.134;17.058;2022-08-01T05:28:40;5.90;;;5.50;;
2610;SDS011;5612;51.134;17.058;2022-08-01T05:31:09;6.10;;;5.63;;
2610;SDS011;5612;51.134;17.058;2022-08-01T05:33:38;7.13;;;6.53;;
2610;SDS011;5612;51.134;17.058;2022-08-01T05:36:08;6.47;;;5.87;;
2610;SDS011;5612;51.134;17.058;2022-08-01T05:38:37;11.53;;;7.90;;
2610;SDS011;5612;51.134;17.058;2022-08-01T05:41:06;6.40;;;5.97;;
2610;SDS011;5612;51.134;17.058;2022-08-01T05:43:35;6.50;;;5.90;;
2610;SDS011;5612;51.134;17.058;2022-08-01T05:46:03;7.50;;;7.00;;
2610;SDS011;5612;51.134;17.058;2022-08-01T05:48:32;7.67;;;6.97;;
2610;SDS011;5612;51.134;17.058;2022-08-01T05:51:01;7.00;;;6.50;;
2610;SDS011;5612;51.134;17.058;2022-08-01T05:53:31;7.97;;;7.20;;
2610;SDS011;5612;51.134;17.058;2022-08-01T05:56:01;7.33;;;6.83;;
2610;SDS011;5612;51.134;17.058;2022-08-01T05:58:30;8.47;;;7.27;;
2610;SDS011;5612;51.134;17.058;2022-08-01T06:00:59;7.07;;;6.37;;
2610;SDS011;5612;51.134;17.058;2022-08-01T06:03:27;6.73;;;6.33;;
2610;SDS011;5612;51.134;17.058;2022-08-01T06:05:58;8.67;;;6.67;;
2610;SDS011;5612;51.134;17.058;2022-08-01T06:08:26;7.13;;;6.50;;
2610;SDS011;5612;51.134;17.058;2022-08-01T06:10:57;7.27;;;6.77;;
2610;SDS011;5612;51.134;17.058;2022-08-01T06:13:26;7.70;;;6.97;;
2610;SDS011;5612;51.134;17.058;2022-08-01T06:15:55;9.93;;;6.57;;
2610;SDS011;5612;51.134;17.058;2022-08-01T06:18:24;8.03;;;6.40;;
2610;SDS011;5612;51.134;17.058;2022-08-01T06:20:53;6.83;;;5.90;;
2610;SDS011;5612;51.134;17.058;2022-08-01T06:23:22;12.23;;;7.57;;
2610;SDS011;5612;51.134;17.058;2022-08-01T06:25:59;7.10;;;6.40;;
2610;SDS011;5612;51.134;17.058;2022-08-01T06:28:28;6.17;;;5.77;;
2610;SDS011;5612;51.134;17.058;2022-08-01T06:30:57;7.57;;;6.50;;
2610;SDS011;5612;51.134;17.058;2022-08-01T06:33:27;7.70;;;7.10;;
2610;SDS011;5612;51.134;17.058;2022-08-01T06:35:56;6.70;;;6.20;;
2610;SDS011;5612;51.134;17.058;2022-08-01T06:38:25;7.60;;;6.33;;
2610;SDS011;5612;51.134;17.058;2022-08-01T06:40:53;7.33;;;6.47;;
2610;SDS011;5612;51.134;17.058;2022-08-01T06:43:24;6.57;;;5.97;;
2610;SDS011;5612;51.134;17.058;2022-08-01T06:45:52;6.50;;;5.80;;
2610;SDS011;5612;51.134;17.058;2022-08-01T06:48:21;10.90;;;6.47;;
2610;SDS011;5612;51.134;17.058;2022-08-01T06:50:50;7.60;;;6.43;;
2610;SDS011;5612;51.134;17.058;2022-08-01T06:53:35;6.67;;;6.00;;
2610;SDS011;5612;51.134;17.058;2022-08-01T06:56:05;5.93;;;5.53;;
2610;SDS011;5612;51.134;17.058;2022-08-01T06:58:36;6.00;;;5.57;;
2610;SDS011;5612;51.134;17.058;2022-08-01T07:01:06;6.33;;;5.73;;
2610;SDS011;5612;51.134;17.058;2022-08-01T07:03:35;5.50;;;5.10;;
2610;SDS011;5612;51.134;17.058;2022-08-01T07:06:21;5.50;;;5.10;;
2610;SDS011;5612;51.134;17.058;2022-08-01T07:08:50;5.80;;;5.40;;
2610;SDS011;5612;51.134;17.058;2022-08-01T07:11:20;5.80;;;5.23;;
2610;SDS011;5612;51.134;17.058;2022-08-01T07:13:50;6.33;;;5.80;;
2610;SDS011;5612;51.134;17.058;2022-08-01T07:16:19;7.80;;;4.93;;
2610;SDS011;5612;51.134;17.058;2022-08-01T07:18:49;7.60;;;5.37;;
2610;SDS011;5612;51.134;17.058;2022-08-01T07:21:18;6.80;;;5.67;;
2610;SDS011;5612;51.134;17.058;2022-08-01T07:24:07;4.97;;;4.67;;
2610;SDS011;5612;51.134;17.058;2022-08-01T07:26:40;5.30;;;5.00;;
2610;SDS011;5612;51.134;17.058;2022-08-01T07:29:21;4.43;;;4.13;;
2610;SDS011;5612;51.134;17.058;2022-08-01T07:31:50;5.10;;;4.70;;
2610;SDS011;5612;51.134;17.058;2022-08-01T07:34:20;5.53;;;4.90;;
2610;SDS011;5612;51.134;17.058;2022-08-01T07:36:49;4.33;;;4.03;;
2610;SDS011;5612;51.134;17.058;2022-08-01T07:39:18;4.50;;;4.10;;
2610;SDS011;5612;51.134;17.058;2022-08-01T07:41:47;9.37;;;4.90;;
2610;SDS011;5612;51.134;17.058;2022-08-01T07:44:35;4.30;;;4.00;;
2610;SDS011;5612;51.134;17.058;2022-08-01T07:47:04;4.23;;;3.93;;
2610;SDS011;5612;51.134;17.058;2022-08-01T07:49:34;4.00;;;3.80;;
2610;SDS011;5612;51.134;17.058;2022-08-01T07:52:06;4.07;;;3.87;;
2610;SDS011;5612;51.134;17.058;2022-08-01T07:54:36;4.47;;;4.17;;
2610;SDS011;5612;51.134;17.058;2022-08-01T07:57:05;4.60;;;4.23;;
2610;SDS011;5612;51.134;17.058;2022-08-01T07:59:35;4.80;;;4.30;;
2610;SDS011;5612;51.134;17.058;2022-08-01T08:02:04;4.70;;;4.40;;
2610;SDS011;5612;51.134;17.058;2022-08-01T08:04:33;4.50;;;4.10;;
2610;SDS011;5612;51.134;17.058;2022-08-01T08:07:02;5.00;;;4.60;;
2610;SDS011;5612;51.134;17.058;2022-08-01T08:09:32;5.00;;;4.57;;
2610;SDS011;5612;51.134;17.058;2022-08-01T08:12:04;4.77;;;4.47;;
2610;SDS011;5612;51.134;17.058;2022-08-01T08:14:36;5.33;;;4.90;;
2610;SDS011;5612;51.134;17.058;2022-08-01T08:17:05;4.17;;;3.97;;
2610;SDS011;5612;51.134;17.058;2022-08-01T08:19:34;5.47;;;4.97;;
2610;SDS011;5612;51.134;17.058;2022-08-01T08:22:06;5.43;;;4.70;;
2610;SDS011;5612;51.134;17.058;2022-08-01T08:24:36;4.50;;;4.20;;
2610;SDS011;5612;51.134;17.058;2022-08-01T08:27:12;4.17;;;3.80;;
2610;SDS011;5612;51.134;17.058;2022-08-01T08:29:46;4.70;;;4.30;;
2610;SDS011;5612;51.134;17.058;2022-08-01T08:32:14;4.33;;;4.03;;
2610;SDS011;5612;51.134;17.058;2022-08-01T08:34:43;4.30;;;3.97;;
2610;SDS011;5612;51.134;17.058;2022-08-01T08:37:15;4.87;;;4.47;;
2610;SDS011;5612;51.134;17.058;2022-08-01T08:39:46;4.47;;;4.17;;
2610;SDS011;5612;51.134;17.058;2022-08-01T08:42:15;3.97;;;3.70;;
2610;SDS011;5612;51.134;17.058;2022-08-01T08:44:44;4.40;;;4.20;;
2610;SDS011;5612;51.134;17.058;2022-08-01T08:47:14;4.23;;;4.00;;
2610;SDS011;5612;51.134;17.058;2022-08-01T08:49:46;4.40;;;4.20;;
2610;SDS011;5612;51.134;17.058;2022-08-01T08:52:17;4.07;;;3.77;;
2610;SDS011;5612;51.134;17.058;2022-08-01T08:54:48;4.77;;;4.37;;
2610;SDS011;5612;51.134;17.058;2022-08-01T08:57:19;6.13;;;4.00;;
2610;SDS011;5612;51.134;17.058;2022-08-01T08:59:50;3.97;;;3.77;;
2610;SDS011;5612;51.134;17.058;2022-08-01T09:02:20;4.40;;;4.10;;
2610;SDS011;5612;51.134;17.058;2022-08-01T09:04:50;5.50;;;4.33;;
2610;SDS011;5612;51.134;17.058;2022-08-01T09:07:19;5.20;;;4.90;;
2610;SDS011;5612;51.134;17.058;2022-08-01T09:09:49;4.97;;;4.67;;
2610;SDS011;5612;51.134;17.058;2022-08-01T09:12:19;4.43;;;4.23;;
2610;SDS011;5612;51.134;17.058;2022-08-01T09:14:49;3.50;;;3.20;;
2610;SDS011;5612;51.134;17.058;2022-08-01T09:17:20;4.43;;;4.17;;
2610;SDS011;5612;51.134;17.058;2022-08-01T09:19:52;4.20;;;3.70;;
2610;SDS011;5612;51.134;17.058;2022-08-01T09:22:24;4.27;;;3.97;;
2610;SDS011;5612;51.134;17.058;2022-08-01T09:24:56;4.17;;;3.80;;
2610;SDS011;5612;51.134;17.058;2022-08-01T09:27:27;4.10;;;3.70;;
2610;SDS011;5612;51.134;17.058;2022-08-01T09:30:08;3.83;;;3.63;;
2610;SDS011;5612;51.134;17.058;2022-08-01T09:32:54;3.87;;;3.57;;
2610;SDS011;5612;51.134;17.058;2022-08-01T09:35:25;4.43;;;4.13;;
2610;SDS011;5612;51.134;17.058;2022-08-01T09:38:13;4.43;;;4.10;;
2610;SDS011;5612;51.134;17.058;2022-08-01T09:40:44;3.60;;;3.30;;
2610;SDS011;5612;51.134;17.058;2022-08-01T09:43:14;4.17;;;3.77;;
2610;SDS011;5612;51.134;17.058;2022-08-01T09:45:46;3.67;;;3.47;;
2610;SDS011;5612;51.134;17.058;2022-08-01T09:48:18;3.53;;;3.40;;
2610;SDS011;5612;51.134;17.058;2022-08-01T09:50:55;4.07;;;3.78;;
2610;SDS011;5612;51.134;17.058;2022-08-01T09:53:39;4.45;;;4.15;;
2610;SDS011;5612;51.134;17.058;2022-08-01T09:56:18;3.90;;;3.70;;
2610;SDS011;5612;51.134;17.058;2022-08-01T09:58:52;3.70;;;3.50;;
2610;SDS011;5612;51.134;17.058;2022-08-01T10:01:27;4.10;;;3.80;;
2610;SDS011;5612;51.134;17.058;2022-08-01T10:04:10;4.63;;;4.30;;
2610;SDS011;5612;51.134;17.058;2022-08-01T10:06:44;3.97;;;3.70;;
2610;SDS011;5612;51.134;17.058;2022-08-01T10:09:19;3.60;;;3.30;;
2610;SDS011;5612;51.134;17.058;2022-08-01T10:12:06;3.30;;;3.15;;
2610;SDS011;5612;51.134;17.058;2022-08-01T10:14:41;3.03;;;2.83;;
2610;SDS011;5612;51.134;17.058;2022-08-01T10:17:18;2.70;;;2.50;;
2610;SDS011;5612;51.134;17.058;2022-08-01T10:19:48;3.28;;;3.08;;
2610;SDS011;5612;51.134;17.058;2022-08-01T10:22:23;3.05;;;2.92;;
2610;SDS011;5612;51.134;17.058;2022-08-01T10:24:55;3.15;;;2.10;;
2610;SDS011;5612;51.134;17.058;2022-08-01T10:27:25;2.67;;;2.47;;
2610;SDS011;5612;51.134;17.058;2022-08-01T10:30:05;2.15;;;2.15;;
2610;SDS011;5612;51.134;17.058;2022-08-01T10:32:51;2.17;;;2.08;;
2610;SDS011;5612;51.134;17.058;2022-08-01T10:35:22;2.50;;;2.40;;
2610;SDS011;5612;51.134;17.058;2022-08-01T10:38:11;3.10;;;2.75;;
2610;SDS011;5612;51.134;17.058;2022-08-01T10:40:41;3.38;;;3.08;;
2610;SDS011;5612;51.134;17.058;2022-08-01T10:43:12;2.65;;;2.08;;
2610;SDS011;5612;51.134;17.058;2022-08-01T10:46:02;3.15;;;2.95;;
2610;SDS011;5612;51.134;17.058;2022-08-01T10:48:36;2.35;;;2.25;;
2610;SDS011;5612;51.134;17.058;2022-08-01T10:51:10;2.55;;;2.45;;
2610;SDS011;5612;51.134;17.058;2022-08-01T10:53:47;2.10;;;2.00;;
2610;SDS011;5612;51.134;17.058;2022-08-01T10:56:20;2.47;;;2.38;;
2610;SDS011;5612;51.134;17.058;2022-08-01T10:59:00;3.42;;;3.30;;
2610;SDS011;5612;51.134;17.058;2022-08-01T11:01:32;2.75;;;2.65;;
2610;SDS011;5612;51.134;17.058;2022-08-01T11:04:06;2.67;;;2.58;;
2610;SDS011;5612;51.134;17.058;2022-08-01T11:06:43;2.63;;;2.53;;
2610;SDS011;5612;51.134;17.058;2022-08-01T11:09:23;3.33;;;3.00;;
2610;SDS011;5612;51.134;17.058;2022-08-01T11:12:04;3.67;;;3.47;;
2610;SDS011;5612;51.134;17.058;2022-08-01T11:17:59;3.70;;;3.40;;
2610;SDS011;5612;51.134;17.058;2022-08-01T11:20:32;3.83;;;3.63;;
2610;SDS011;5612;51.134;17.058;2022-08-01T11:23:17;3.42;;;3.22;;
2610;SDS011;5612;51.134;17.058;2022-08-01T11:29:12;3.97;;;3.70;;
2610;SDS011;5612;51.134;17.058;2022-08-01T11:31:48;4.80;;;4.50;;
2610;SDS011;5612;51.134;17.058;2022-08-01T11:34:18;6.10;;;3.83;;
2610;SDS011;5612;51.134;17.058;2022-08-01T11:36:49;4.67;;;4.27;;
2610;SDS011;5612;51.134;17.058;2022-08-01T11:39:42;4.93;;;3.70;;
2610;SDS011;5612;51.134;17.058;2022-08-01T11:42:17;4.67;;;4.47;;
2610;SDS011;5612;51.134;17.058;2022-08-01T11:44:47;4.37;;;4.13;;
2610;SDS011;5612;51.134;17.058;2022-08-01T11:47:18;4.33;;;4.03;;
2610;SDS011;5612;51.134;17.058;2022-08-01T11:53:05;3.73;;;3.53;;
2610;SDS011;5612;51.134;17.058;2022-08-01T11:55:39;3.73;;;3.50;;
2610;SDS011;5612;51.134;17.058;2022-08-01T11:58:20;3.77;;;3.47;;
2610;SDS011;5612;51.134;17.058;2022-08-01T12:00:55;4.40;;;4.17;;
2610;SDS011;5612;51.134;17.058;2022-08-01T12:03:26;3.63;;;3.43;;
2610;SDS011;5612;51.134;17.058;2022-08-01T12:05:59;3.60;;;3.33;;
2610;SDS011;5612;51.134;17.058;2022-08-01T12:08:29;3.60;;;3.40;;
2610;SDS011;5612;51.134;17.058;2022-08-01T12:11:01;3.63;;;3.43;;
2610;SDS011;5612;51.134;17.058;2022-08-01T12:13:39;3.70;;;3.40;;
2610;SDS011;5612;51.134;17.058;2022-08-01T12:16:10;3.73;;;3.00;;
2610;SDS011;5612;51.134;17.058;2022-08-01T12:18:40;4.13;;;3.73;;
2610;SDS011;5612;51.134;17.058;2022-08-01T12:21:10;3.60;;;3.40;;
2610;SDS011;5612;51.134;17.058;2022-08-01T12:23:39;3.33;;;3.23;;
2610;SDS011;5612;51.134;17.058;2022-08-01T12:26:09;3.90;;;3.70;;
2610;SDS011;5612;51.134;17.058;2022-08-01T12:28:58;3.92;;;3.72;;
2610;SDS011;5612;51.134;17.058;2022-08-01T12:31:33;3.03;;;2.83;;
2610;SDS011;5612;51.134;17.058;2022-08-01T12:36:56;3.17;;;2.97;;
2610;SDS011;5612;51.134;17.058;2022-08-01T12:39:30;3.20;;;3.00;;
2610;SDS011;5612;51.134;17.058;2022-08-01T12:42:07;3.10;;;2.90;;
2610;SDS011;5612;51.134;17.058;2022-08-01T12:44:37;3.25;;;3.10;;
2610;SDS011;5612;51.134;17.058;2022-08-01T12:47:07;3.55;;;3.35;;
2610;SDS011;5612;51.134;17.058;2022-08-01T12:49:38;3.08;;;2.97;;
2610;SDS011;5612;51.134;17.058;2022-08-01T12:52:09;3.30;;;3.20;;
2610;SDS011;5612;51.134;17.058;2022-08-01T12:57:39;3.90;;;3.70;;
2610;SDS011;5612;51.134;17.058;2022-08-01T13:00:13;3.70;;;3.42;;
2610;SDS011;5612;51.134;17.058;2022-08-01T13:02:49;3.63;;;3.42;;
2610;SDS011;5612;51.134;17.058;2022-08-01T13:05:27;3.57;;;3.27;;
2610;SDS011;5612;51.134;17.058;2022-08-01T13:07:56;3.20;;;3.00;;
2610;SDS011;5612;51.134;17.058;2022-08-01T13:10:30;3.47;;;3.37;;
2610;SDS011;5612;51.134;17.058;2022-08-01T13:13:00;3.63;;;3.43;;
2610;SDS011;5612;51.134;17.058;2022-08-01T13:15:30;3.95;;;3.35;;
2610;SDS011;5612;51.134;17.058;2022-08-01T13:18:22;3.78;;;3.60;;
2610;SDS011;5612;51.134;17.058;2022-08-01T13:21:09;3.58;;;3.42;;
2610;SDS011;5612;51.134;17.058;2022-08-01T13:23:39;3.88;;;3.58;;
2610;SDS011;5612;51.134;17.058;2022-08-01T13:26:37;3.38;;;3.17;;
2610;SDS011;5612;51.134;17.058;2022-08-01T13:29:12;3.60;;;3.40;;
2610;SDS011;5612;51.134;17.058;2022-08-01T13:31:42;3.92;;;3.72;;
2610;SDS011;5612;51.134;17.058;2022-08-01T13:34:14;3.88;;;3.67;;
2610;SDS011;5612;51.134;17.058;2022-08-01T13:36:43;3.35;;;3.15;;
2610;SDS011;5612;51.134;17.058;2022-08-01T13:39:15;3.22;;;3.13;;
2610;SDS011;5612;51.134;17.058;2022-08-01T13:42:01;3.53;;;3.33;;
2610;SDS011;5612;51.134;17.058;2022-08-01T13:44:32;2.85;;;2.75;;
2610;SDS011;5612;51.134;17.058;2022-08-01T13:47:02;5.30;;;2.97;;
2610;SDS011;5612;51.134;17.058;2022-08-01T13:49:41;3.35;;;3.05;;
2610;SDS011;5612;51.134;17.058;2022-08-01T13:52:10;3.50;;;3.30;;
2610;SDS011;5612;51.134;17.058;2022-08-01T13:54:39;3.25;;;3.10;;
2610;SDS011;5612;51.134;17.058;2022-08-01T13:57:08;4.03;;;3.83;;
2610;SDS011;5612;51.134;17.058;2022-08-01T13:59:38;3.25;;;3.15;;
2610;SDS011;5612;51.134;17.058;2022-08-01T14:02:07;2.75;;;2.65;;
2610;SDS011;5612;51.134;17.058;2022-08-01T14:04:36;2.50;;;2.40;;
2610;SDS011;5612;51.134;17.058;2022-08-01T14:07:05;3.60;;;3.33;;
2610;SDS011;5612;51.134;17.058;2022-08-01T14:09:40;3.13;;;2.92;;
2610;SDS011;5612;51.134;17.058;2022-08-01T14:12:29;2.63;;;2.53;;
2610;SDS011;5612;51.134;17.058;2022-08-01T14:15:00;3.20;;;3.10;;
2610;SDS011;5612;51.134;17.058;2022-08-01T14:17:29;3.15;;;3.05;;
2610;SDS011;5612;51.134;17.058;2022-08-01T14:20:03;2.65;;;2.55;;
2610;SDS011;5612;51.134;17.058;2022-08-01T14:22:33;3.53;;;3.33;;
2610;SDS011;5612;51.134;17.058;2022-08-01T14:25:03;3.45;;;3.25;;
2610;SDS011;5612;51.134;17.058;2022-08-01T14:27:32;2.92;;;2.83;;
2610;SDS011;5612;51.134;17.058;2022-08-01T14:30:05;2.72;;;2.63;;
2610;SDS011;5612;51.134;17.058;2022-08-01T14:32:35;4.18;;;3.08;;
2610;SDS011;5612;51.134;17.058;2022-08-01T14:35:05;3.08;;;2.97;;
2610;SDS011;5612;51.134;17.058;2022-08-01T14:37:34;3.20;;;3.00;;
2610;SDS011;5612;51.134;17.058;2022-08-01T14:40:05;2.90;;;2.70;;
2610;SDS011;5612;51.134;17.058;2022-08-01T14:42:37;2.50;;;2.40;;
2610;SDS011;5612;51.134;17.058;2022-08-01T14:45:08;2.72;;;2.63;;
2610;SDS011;5612;51.134;17.058;2022-08-01T14:47:39;2.47;;;2.38;;
2610;SDS011;5612;51.134;17.058;2022-08-01T14:50:09;2.28;;;2.17;;
2610;SDS011;5612;51.134;17.058;2022-08-01T14:52:40;1.70;;;1.60;;
2610;SDS011;5612;51.134;17.058;2022-08-01T14:55:10;1.83;;;1.73;;
2610;SDS011;5612;51.134;17.058;2022-08-01T14:57:40;3.00;;;2.15;;
2610;SDS011;5612;51.134;17.058;2022-08-01T15:00:11;2.35;;;1.83;;
2610;SDS011;5612;51.134;17.058;2022-08-01T15:02:41;2.22;;;2.10;;
2610;SDS011;5612;51.134;17.058;2022-08-01T15:05:11;1.90;;;1.80;;
2610;SDS011;5612;51.134;17.058;2022-08-01T15:07:40;1.70;;;1.60;;
2610;SDS011;5612;51.134;17.058;2022-08-01T15:10:17;2.13;;;1.98;;
2610;SDS011;5612;51.134;17.058;2022-08-01T15:12:46;2.30;;;2.20;;
2610;SDS011;5612;51.134;17.058;2022-08-01T15:15:17;2.00;;;1.92;;
2610;SDS011;5612;51.134;17.058;2022-08-01T15:17:47;1.85;;;1.83;;
2610;SDS011;5612;51.134;17.058;2022-08-01T15:20:18;2.30;;;2.20;;
2610;SDS011;5612;51.134;17.058;2022-08-01T15:22:47;2.13;;;2.03;;
2610;SDS011;5612;51.134;17.058;2022-08-01T15:25:16;1.98;;;1.88;;
2610;SDS011;5612;51.134;17.058;2022-08-01T15:27:45;2.40;;;2.30;;
2610;SDS011;5612;51.134;17.058;2022-08-01T15:30:15;2.40;;;2.20;;
2610;SDS011;5612;51.134;17.058;2022-08-01T15:32:52;2.67;;;2.57;;
2610;SDS011;5612;51.134;17.058;2022-08-01T15:35:21;2.67;;;2.57;;
2610;SDS011;5612;51.134;17.058;2022-08-01T15:37:50;2.60;;;2.40;;
2610;SDS011;5612;51.134;17.058;2022-08-01T15:40:19;2.50;;;2.40;;
2610;SDS011;5612;51.134;17.058;2022-08-01T15:42:49;2.20;;;2.10;;
2610;SDS011;5612;51.134;17.058;2022-08-01T15:45:20;1.80;;;1.70;;
2610;SDS011;5612;51.134;17.058;2022-08-01T15:48:09;1.83;;;1.73;;